createdAt,value
2019-05-20T00:01:35.808Z,66.98
2019-05-20T00:04:06.414Z,67.02
2019-05-20T00:06:36.767Z,67.05
2019-05-20T00:09:07.436Z,67.08
2019-05-20T00:11:39.882Z,67.11
2019-05-20T00:14:10.222Z,67.14
2019-05-20T00:16:42.942Z,67.19
2019-05-20T00:19:13.191Z,67.23
2019-05-20T00:21:43.530Z,67.23
2019-05-20T00:24:16.547Z,67.28
2019-05-20T00:26:46.850Z,67.30
2019-05-20T00:29:17.218Z,67.33
2019-05-20T00:31:47.897Z,67.38
2019-05-20T00:34:32.708Z,67.41
2019-05-20T00:36:50.260Z,67.44
2019-05-20T00:39:22.897Z,67.48
2019-05-20T00:41:53.217Z,67.51
2019-05-20T00:44:25.351Z,67.54
2019-05-20T00:46:56.599Z,67.57
2019-05-20T00:49:28.591Z,67.62
2019-05-20T00:51:58.960Z,67.64
2019-05-20T00:54:29.914Z,67.67
2019-05-20T00:57:01.230Z,67.71
2019-05-20T00:59:32.263Z,67.75
2019-05-20T01:02:02.585Z,67.81
2019-05-20T01:04:33.174Z,67.82
2019-05-20T01:07:06.069Z,67.88
2019-05-20T01:09:36.366Z,67.88
2019-05-20T01:12:08.081Z,67.92
2019-05-20T01:14:39.321Z,67.97
2019-05-20T01:17:09.621Z,68.02
2019-05-20T01:19:39.930Z,68.02
2019-05-20T01:22:10.273Z,68.05
2019-05-20T01:24:42.087Z,68.08
2019-05-20T01:27:12.403Z,68.13
2019-05-20T01:29:43.555Z,68.16
2019-05-20T01:32:14.242Z,68.18
2019-05-20T01:34:46.603Z,68.23
2019-05-20T01:37:16.944Z,68.27
2019-05-20T01:39:47.718Z,68.30
2019-05-20T01:42:18.408Z,68.33
2019-05-20T01:44:49.160Z,68.36
2019-05-20T01:47:22.423Z,68.41
2019-05-20T01:49:53.769Z,68.43
2019-05-20T01:52:24.071Z,68.46
2019-05-20T01:54:54.497Z,68.51
2019-05-20T01:57:27.205Z,68.55
2019-05-20T01:59:57.532Z,68.58
2019-05-20T02:02:28.706Z,68.63
2019-05-20T02:04:59.044Z,68.66
2019-05-20T02:07:29.315Z,68.68
2019-05-20T02:09:59.654Z,68.73
2019-05-20T02:12:31.455Z,68.76
2019-05-20T02:15:08.688Z,68.81
2019-05-20T02:17:39.020Z,68.85
2019-05-20T02:20:09.859Z,68.89
2019-05-20T02:22:40.258Z,68.95
2019-05-20T02:25:10.691Z,68.97
2019-05-20T02:27:42.133Z,69.01
2019-05-20T02:30:13.882Z,69.04
2019-05-20T02:32:44.298Z,69.10
2019-05-20T02:35:18.157Z,69.15
2019-05-20T02:37:50.696Z,69.17
2019-05-20T02:40:21.013Z,69.21
2019-05-20T02:42:51.279Z,69.26
2019-05-20T02:45:21.704Z,69.29
2019-05-20T02:47:52.479Z,69.34
2019-05-20T02:50:23.849Z,69.40
2019-05-20T02:52:55.513Z,69.44
2019-05-20T02:55:26.960Z,69.46
2019-05-20T02:57:57.601Z,69.52
2019-05-20T03:00:28.374Z,69.56
2019-05-20T03:02:59.417Z,69.59
2019-05-20T03:05:30.556Z,69.65
2019-05-20T03:08:01.450Z,69.70
2019-05-20T03:10:31.780Z,69.74
2019-05-20T03:13:02.139Z,69.79
2019-05-20T03:15:33.326Z,69.84
2019-05-20T03:18:04.581Z,69.87
2019-05-20T03:20:34.893Z,69.92
2019-05-20T03:23:05.206Z,69.96
2019-05-20T03:25:37.775Z,70.00
2019-05-20T03:28:08.760Z,70.05
2019-05-20T03:30:39.534Z,70.08
2019-05-20T03:33:12.169Z,70.13
2019-05-20T03:35:42.797Z,70.20
2019-05-20T03:38:13.521Z,70.25
2019-05-20T03:40:43.834Z,70.29
2019-05-20T03:43:14.181Z,70.32
2019-05-20T03:45:44.901Z,70.35
2019-05-20T03:48:15.184Z,70.40
2019-05-20T03:50:45.753Z,70.42
2019-05-20T03:53:16.845Z,70.47
2019-05-20T03:55:48.174Z,70.50
2019-05-20T03:58:18.554Z,70.54
2019-05-20T04:00:49.410Z,70.57
2019-05-20T04:03:19.699Z,70.60
2019-05-20T04:05:50.187Z,70.65
2019-05-20T04:08:20.514Z,70.68
2019-05-20T04:10:56.199Z,70.73
2019-05-20T04:13:26.547Z,70.75
2019-05-20T04:15:56.860Z,70.80
2019-05-20T04:18:27.547Z,70.84
2019-05-20T04:20:57.903Z,70.89
2019-05-20T04:23:28.214Z,70.93
2019-05-20T04:25:59.958Z,70.98
2019-05-20T04:28:30.738Z,71.01
2019-05-20T04:31:04.369Z,71.05
2019-05-20T04:33:34.694Z,71.09
2019-05-20T04:36:06.468Z,71.13
2019-05-20T04:38:37.073Z,71.19
2019-05-20T04:41:09.002Z,71.21
2019-05-20T04:43:39.867Z,71.25
2019-05-20T04:46:13.382Z,71.28
2019-05-20T04:48:44.152Z,71.35
2019-05-20T04:51:14.805Z,71.38
2019-05-20T04:53:47.400Z,71.43
2019-05-20T04:56:18.340Z,71.48
2019-05-20T04:58:53.763Z,71.51
2019-05-20T05:01:24.128Z,71.55
2019-05-20T05:03:56.309Z,71.58
2019-05-20T05:06:26.604Z,71.62
2019-05-20T05:08:56.981Z,71.67
2019-05-20T05:11:37.591Z,71.71
2019-05-20T05:14:07.987Z,71.73
2019-05-20T05:16:38.386Z,71.76
2019-05-20T05:19:08.659Z,71.81
2019-05-20T05:21:39.764Z,71.83
2019-05-20T05:24:10.928Z,71.89
2019-05-20T05:26:41.585Z,71.95
2019-05-20T05:29:13.111Z,71.99
2019-05-20T05:31:43.886Z,72.00
2019-05-20T05:34:16.556Z,72.04
2019-05-20T05:36:47.687Z,72.11
2019-05-20T05:39:21.470Z,72.12
2019-05-20T05:41:52.157Z,72.13
2019-05-20T05:44:22.581Z,72.17
2019-05-20T05:46:55.601Z,72.22
2019-05-20T05:49:38.998Z,72.24
2019-05-20T05:52:09.399Z,72.28
2019-05-20T05:54:42.091Z,72.32
2019-05-20T05:57:12.442Z,72.34
2019-05-20T05:59:43.095Z,72.41
2019-05-20T06:02:14.908Z,72.42
2019-05-20T06:04:45.253Z,72.51
2019-05-20T06:07:16.830Z,72.52
2019-05-20T06:09:47.171Z,72.53
2019-05-20T06:12:19.039Z,72.58
2019-05-20T06:14:49.368Z,72.64
2019-05-20T06:17:19.771Z,72.60
2019-05-20T06:19:50.082Z,72.61
2019-05-20T06:22:20.742Z,72.62
2019-05-20T06:24:51.844Z,72.76
2019-05-20T06:27:22.342Z,72.77
2019-05-20T06:29:54.827Z,72.79
2019-05-20T06:32:28.541Z,72.78
2019-05-20T06:34:59.217Z,72.79
2019-05-20T06:37:31.544Z,72.78
2019-05-20T06:40:01.972Z,72.76
2019-05-20T06:42:32.696Z,72.76
2019-05-20T06:45:03.399Z,72.76
2019-05-20T06:47:36.445Z,72.76
2019-05-20T06:50:10.181Z,72.77
2019-05-20T06:52:40.504Z,72.82
2019-05-20T06:55:11.080Z,72.83
2019-05-20T06:57:41.386Z,72.81
2019-05-20T07:00:13.579Z,72.74
2019-05-20T07:02:44.044Z,72.87
2019-05-20T07:05:16.579Z,72.98
2019-05-20T07:07:49.193Z,73.09
2019-05-20T07:10:22.795Z,73.03
2019-05-20T07:12:54.283Z,72.99
2019-05-20T07:15:24.815Z,72.95
2019-05-20T07:17:55.142Z,72.88
2019-05-20T07:20:25.422Z,72.89
2019-05-20T07:22:58.999Z,72.85
2019-05-20T07:25:30.927Z,72.81
2019-05-20T07:28:01.214Z,72.84
2019-05-20T07:30:32.546Z,72.76
2019-05-20T07:33:04.054Z,72.77
2019-05-20T07:35:34.380Z,72.74
2019-05-20T07:38:04.706Z,72.67
2019-05-20T07:40:35.797Z,72.70
2019-05-20T07:43:06.389Z,72.67
2019-05-20T07:45:38.756Z,72.67
2019-05-20T07:48:09.090Z,72.63
2019-05-20T07:50:41.705Z,72.59
2019-05-20T07:53:13.879Z,72.57
2019-05-20T07:55:53.275Z,72.55
2019-05-20T07:58:26.961Z,72.54
2019-05-20T08:00:57.697Z,72.54
2019-05-20T08:03:28.323Z,72.49
2019-05-20T08:05:58.986Z,72.50
2019-05-20T08:08:30.133Z,72.47
2019-05-20T08:11:02.310Z,72.44
2019-05-20T08:13:34.310Z,72.40
2019-05-20T08:16:05.047Z,72.37
2019-05-20T08:18:35.328Z,72.35
2019-05-20T08:21:06.162Z,72.32
2019-05-20T08:23:36.607Z,72.29
2019-05-20T08:26:07.108Z,72.21
2019-05-20T08:28:37.792Z,72.18
2019-05-20T08:31:08.138Z,72.17
2019-05-20T08:33:38.857Z,72.11
2019-05-20T08:36:10.243Z,72.21
2019-05-20T08:38:40.642Z,72.04
2019-05-20T08:41:11.246Z,71.97
2019-05-20T08:43:41.533Z,72.02
2019-05-20T08:46:12.433Z,71.98
2019-05-20T08:48:42.744Z,71.98
2019-05-20T08:51:13.374Z,71.95
2019-05-20T08:53:47.532Z,71.84
2019-05-20T08:56:18.017Z,71.77
2019-05-20T08:58:48.323Z,71.65
2019-05-20T09:01:18.833Z,71.81
2019-05-20T09:04:03.389Z,71.56
2019-05-20T09:06:33.780Z,71.57
2019-05-20T09:09:06.989Z,71.33
2019-05-20T09:11:37.350Z,71.36
2019-05-20T09:14:10.818Z,71.27
2019-05-20T09:16:43.190Z,71.24
2019-05-20T09:19:17.472Z,71.15
2019-05-20T09:21:47.757Z,70.97
2019-05-20T09:24:19.796Z,71.08
2019-05-20T09:26:50.454Z,70.95
2019-05-20T09:29:23.091Z,70.90
2019-05-20T09:31:53.372Z,70.74
2019-05-20T09:34:24.371Z,70.67
2019-05-20T09:36:57.504Z,70.63
2019-05-20T09:39:27.906Z,70.38
2019-05-20T09:41:58.214Z,70.34
2019-05-20T09:44:28.499Z,70.22
2019-05-20T09:47:00.465Z,70.10
2019-05-20T09:49:31.619Z,69.78
2019-05-20T09:52:03.674Z,69.79
2019-05-20T09:54:40.181Z,69.70
2019-05-20T09:57:13.394Z,69.67
2019-05-20T09:59:43.981Z,69.40
2019-05-20T10:02:14.639Z,69.32
2019-05-20T10:04:44.958Z,69.28
2019-05-20T10:07:15.308Z,69.15
2019-05-20T10:09:45.593Z,68.98
2019-05-20T10:12:16.643Z,68.69
2019-05-20T10:14:46.825Z,68.72
2019-05-20T10:17:17.148Z,68.51
2019-05-20T10:19:50.233Z,68.31
2019-05-20T10:22:21.014Z,68.24
2019-05-20T10:24:51.332Z,67.75
2019-05-20T10:27:25.666Z,67.60
2019-05-20T10:29:56.621Z,67.56
2019-05-20T10:32:26.984Z,67.09
2019-05-20T10:34:59.758Z,67.09
2019-05-20T10:37:30.176Z,66.79
2019-05-20T10:40:00.446Z,66.63
2019-05-20T10:42:31.874Z,66.93
2019-05-20T10:45:02.673Z,66.77
2019-05-20T10:47:33.632Z,66.48
2019-05-20T10:50:04.454Z,66.21
2019-05-20T10:52:36.429Z,65.90
2019-05-20T10:55:07.310Z,65.90
2019-05-20T10:57:38.433Z,65.38
2019-05-20T11:00:09.711Z,65.30
2019-05-20T11:02:40.038Z,65.20
2019-05-20T11:05:10.840Z,65.01
2019-05-20T11:07:41.570Z,64.85
2019-05-20T11:10:12.502Z,64.44
2019-05-20T11:12:44.213Z,64.14
2019-05-20T11:15:14.670Z,63.88
2019-05-20T11:17:44.987Z,63.79
2019-05-20T11:20:18.212Z,63.52
2019-05-20T11:22:51.325Z,63.50
2019-05-20T11:25:21.690Z,63.25
2019-05-20T11:27:56.141Z,63.08
2019-05-20T11:30:26.466Z,62.82
2019-05-20T11:32:56.795Z,62.42
2019-05-20T11:35:27.434Z,62.18
2019-05-20T11:37:57.834Z,62.11
2019-05-20T11:40:28.125Z,61.81
2019-05-20T11:42:58.755Z,61.48
2019-05-20T11:45:29.362Z,61.58
2019-05-20T11:47:59.669Z,61.22
2019-05-20T11:50:29.856Z,60.94
2019-05-20T11:53:02.376Z,60.78
2019-05-20T11:55:32.746Z,60.43
2019-05-20T11:58:15.352Z,60.27
2019-05-20T12:00:35.156Z,60.15
2019-05-20T12:03:07.210Z,60.01
2019-05-20T12:05:37.810Z,59.49
2019-05-20T12:08:09.158Z,59.35
2019-05-20T12:10:40.515Z,59.18
2019-05-20T12:13:13.285Z,59.01
2019-05-20T12:15:44.169Z,58.77
2019-05-20T12:18:14.869Z,58.53
2019-05-20T12:20:46.063Z,58.40
2019-05-20T12:23:16.385Z,58.08
2019-05-20T12:25:46.910Z,58.14
2019-05-20T12:28:18.243Z,57.85
2019-05-20T12:30:48.856Z,57.68
2019-05-20T12:33:20.007Z,57.40
2019-05-20T12:35:50.442Z,57.24
2019-05-20T12:38:22.572Z,57.08
2019-05-20T12:40:53.749Z,56.85
2019-05-20T12:43:24.048Z,56.85
2019-05-20T12:45:54.383Z,56.65
2019-05-20T12:48:25.428Z,56.44
2019-05-20T12:50:55.729Z,56.27
2019-05-20T12:53:26.604Z,56.08
2019-05-20T12:55:56.989Z,55.86
2019-05-20T12:58:28.013Z,55.62
2019-05-20T13:01:03.198Z,55.57
2019-05-20T13:03:36.833Z,55.41
2019-05-20T13:06:08.985Z,55.33
2019-05-20T13:08:42.205Z,55.27
2019-05-20T13:11:13.940Z,55.02
2019-05-20T13:13:45.358Z,54.86
2019-05-20T13:16:16.847Z,54.74
2019-05-20T13:18:55.821Z,54.74
2019-05-20T13:21:22.820Z,54.33
2019-05-20T13:23:55.287Z,54.37
2019-05-20T13:26:27.301Z,54.23
2019-05-20T13:29:07.273Z,54.04
2019-05-20T13:31:43.008Z,54.01
2019-05-20T13:34:14.147Z,53.80
2019-05-20T13:36:44.484Z,53.60
2019-05-20T13:39:17.214Z,53.55
2019-05-20T13:41:49.536Z,53.55
2019-05-20T13:44:19.834Z,53.27
2019-05-20T13:46:50.148Z,53.17
2019-05-20T13:49:20.835Z,53.03
2019-05-20T13:51:52.733Z,52.84
2019-05-20T13:54:25.554Z,52.75
2019-05-20T13:56:55.932Z,52.64
2019-05-20T13:59:27.447Z,52.46
2019-05-20T14:01:58.627Z,52.52
2019-05-20T14:04:28.896Z,52.31
2019-05-20T14:06:59.286Z,52.13
2019-05-20T14:09:31.225Z,52.05
2019-05-20T14:12:01.650Z,51.92
2019-05-20T14:14:33.299Z,51.95
2019-05-20T14:17:05.216Z,51.72
2019-05-20T14:19:35.805Z,51.57
2019-05-20T14:22:06.655Z,51.53
2019-05-20T14:24:39.686Z,51.43
2019-05-20T14:27:10.077Z,51.33
2019-05-20T14:29:41.260Z,51.12
2019-05-20T14:32:16.224Z,51.10
2019-05-20T14:34:46.563Z,51.04
2019-05-20T14:37:16.967Z,50.93
2019-05-20T14:39:47.822Z,50.79
2019-05-20T14:42:18.554Z,50.73
2019-05-20T14:44:49.231Z,50.68
2019-05-20T14:47:20.070Z,50.55
2019-05-20T14:49:54.145Z,50.42
2019-05-20T14:52:25.470Z,50.42
2019-05-20T14:54:55.898Z,50.29
2019-05-20T14:57:27.484Z,50.20
2019-05-20T14:59:58.116Z,50.04
2019-05-20T15:02:30.954Z,50.02
2019-05-20T15:05:02.540Z,49.93
2019-05-20T15:07:33.315Z,49.88
2019-05-20T15:10:13.965Z,49.78
2019-05-20T15:12:44.343Z,49.66
2019-05-20T15:15:17.642Z,49.55
2019-05-20T15:17:58.271Z,49.58
2019-05-20T15:20:28.658Z,49.47
2019-05-20T15:22:59.063Z,49.39
2019-05-20T15:25:31.819Z,49.27
2019-05-20T15:28:05.071Z,49.23
2019-05-20T15:30:35.593Z,49.22
2019-05-20T15:33:05.954Z,49.09
2019-05-20T15:35:37.496Z,49.05
2019-05-20T15:38:11.310Z,48.99
2019-05-20T15:40:47.659Z,48.94
2019-05-20T15:43:18.058Z,48.84
2019-05-20T15:45:50.773Z,48.84
2019-05-20T15:48:23.589Z,48.76
2019-05-20T15:50:55.364Z,48.71
2019-05-20T15:53:27.149Z,48.66
2019-05-20T15:55:57.510Z,48.55
2019-05-20T15:58:28.028Z,48.53
2019-05-20T16:00:59.308Z,48.45
2019-05-20T16:03:29.713Z,48.38
2019-05-20T16:06:02.435Z,48.37
2019-05-20T16:08:34.206Z,48.33
2019-05-20T16:11:06.998Z,48.32
2019-05-20T16:13:39.636Z,48.30
2019-05-20T16:16:12.926Z,48.25
2019-05-20T16:18:42.401Z,48.22
2019-05-20T16:21:13.368Z,48.21
2019-05-20T16:23:44.581Z,48.09
2019-05-20T16:26:15.443Z,48.06
2019-05-20T16:28:47.463Z,48.02
2019-05-20T16:31:17.939Z,47.98
2019-05-20T16:33:48.589Z,47.96
2019-05-20T16:36:19.273Z,47.93
2019-05-20T16:38:49.704Z,47.91
2019-05-20T16:41:20.210Z,47.86
2019-05-20T16:43:51.043Z,47.82
2019-05-20T16:46:21.367Z,47.81
2019-05-20T16:48:52.801Z,47.80
2019-05-20T16:51:23.188Z,47.77
2019-05-20T16:53:55.133Z,47.76
2019-05-20T16:56:25.476Z,47.73
2019-05-20T16:58:58.313Z,47.70
2019-05-20T17:01:45.302Z,47.67
2019-05-20T17:04:04.131Z,47.64
2019-05-20T17:06:36.401Z,47.62
2019-05-20T17:09:09.158Z,47.62
2019-05-20T17:11:42.802Z,47.57
2019-05-20T17:14:13.309Z,47.58
2019-05-20T17:16:45.784Z,47.57
2019-05-20T17:19:22.192Z,47.54
2019-05-20T17:21:57.421Z,47.53
2019-05-20T17:24:27.774Z,47.51
2019-05-20T17:26:58.054Z,47.55
2019-05-20T17:29:30.265Z,47.50
2019-05-20T17:32:00.582Z,47.52
2019-05-20T17:34:36.317Z,47.52
2019-05-20T17:37:06.790Z,47.49
2019-05-20T17:39:37.136Z,47.49
2019-05-20T17:42:08.162Z,47.49
2019-05-20T17:44:38.577Z,47.50
2019-05-20T17:47:08.901Z,47.47
2019-05-20T17:49:42.520Z,47.48
2019-05-20T17:52:16.747Z,47.47
2019-05-20T17:54:47.795Z,47.48
2019-05-20T17:57:22.611Z,47.46
2019-05-20T17:59:54.117Z,47.46
2019-05-20T18:02:24.970Z,47.48
2019-05-20T18:04:55.336Z,47.45
2019-05-20T18:07:27.102Z,47.44
2019-05-20T18:09:57.435Z,47.45
2019-05-20T18:12:32.175Z,47.48
2019-05-20T18:15:06.198Z,47.47
2019-05-20T18:17:36.504Z,47.49
2019-05-20T18:20:07.285Z,47.49
2019-05-20T18:22:38.036Z,47.49
2019-05-20T18:25:08.481Z,47.50
2019-05-20T18:27:45.609Z,47.53
2019-05-20T18:30:16.625Z,47.53
2019-05-20T18:32:47.076Z,47.51
2019-05-20T18:35:20.210Z,47.52
2019-05-20T18:37:50.693Z,47.54
2019-05-20T18:40:23.438Z,47.54
2019-05-20T18:42:55.381Z,47.56
2019-05-20T18:45:26.630Z,47.57
2019-05-20T18:47:56.926Z,47.60
2019-05-20T18:50:27.359Z,47.62
2019-05-20T18:52:57.632Z,47.61
2019-05-20T18:55:29.635Z,47.62
2019-05-20T18:58:00.247Z,47.67
2019-05-20T19:00:30.631Z,47.65
2019-05-20T19:03:01.100Z,47.68
2019-05-20T19:05:33.912Z,47.70
2019-05-20T19:08:04.251Z,47.72
2019-05-20T19:10:34.646Z,47.75
2019-05-20T19:13:06.861Z,47.76
2019-05-20T19:15:37.795Z,47.79
2019-05-20T19:18:10.000Z,47.80
2019-05-20T19:20:41.970Z,47.84
2019-05-20T19:23:13.456Z,47.85
2019-05-20T19:25:44.153Z,47.87
2019-05-20T19:28:14.516Z,47.89
2019-05-20T19:30:44.816Z,47.91
2019-05-20T19:33:16.973Z,47.93
2019-05-20T19:35:48.021Z,47.97
2019-05-20T19:38:18.353Z,47.99
2019-05-20T19:40:48.757Z,48.03
2019-05-20T19:43:21.668Z,48.06
2019-05-20T19:45:52.102Z,48.07
2019-05-20T19:48:23.856Z,48.11
2019-05-20T19:50:54.126Z,48.15
2019-05-20T19:53:24.465Z,48.16
2019-05-20T19:55:56.383Z,48.17
2019-05-20T19:58:26.675Z,48.19
2019-05-20T20:00:57.093Z,48.24
2019-05-20T20:03:27.641Z,48.26
2019-05-20T20:05:57.992Z,48.26
2019-05-20T20:08:28.684Z,48.26
2019-05-20T20:10:59.406Z,48.29
2019-05-20T20:13:29.566Z,48.32
2019-05-20T20:15:59.878Z,48.38
2019-05-20T20:18:32.279Z,48.44
2019-05-20T20:21:05.102Z,48.49
2019-05-20T20:23:36.635Z,48.52
2019-05-20T20:26:07.264Z,48.54
2019-05-20T20:28:37.572Z,48.57
2019-05-20T20:31:10.885Z,48.61
2019-05-20T20:33:40.341Z,48.65
2019-05-20T20:36:10.728Z,48.71
2019-05-20T20:38:41.195Z,48.75
2019-05-20T20:41:11.518Z,48.77
2019-05-20T20:43:42.914Z,48.80
2019-05-20T20:46:14.545Z,48.85
2019-05-20T20:48:45.259Z,48.86
2019-05-20T20:51:15.835Z,48.90
2019-05-20T20:53:46.480Z,48.96
2019-05-20T20:56:25.151Z,49.02
2019-05-20T20:58:55.260Z,49.09
2019-05-20T21:01:25.595Z,49.14
2019-05-20T21:04:00.040Z,49.18
2019-05-20T21:06:30.412Z,49.24
2019-05-20T21:09:05.943Z,49.27
2019-05-20T21:11:37.924Z,49.33
2019-05-20T21:14:10.082Z,49.37
2019-05-20T21:16:40.848Z,49.42
2019-05-20T21:19:11.209Z,49.48
2019-05-20T21:21:41.810Z,49.52
2019-05-20T21:24:12.191Z,49.55
2019-05-20T21:26:43.484Z,49.59
2019-05-20T21:29:32.601Z,49.64
2019-05-20T21:32:05.275Z,49.68
2019-05-20T21:34:36.288Z,49.72
2019-05-20T21:37:06.558Z,49.77
2019-05-20T21:39:38.810Z,49.83
2019-05-20T21:42:09.508Z,49.85
2019-05-20T21:44:40.187Z,49.89
2019-05-20T21:47:10.493Z,49.96
2019-05-20T21:49:40.784Z,50.03
2019-05-20T21:52:11.520Z,50.07
2019-05-20T21:54:44.191Z,50.12
2019-05-20T21:57:14.508Z,50.18
2019-05-20T21:59:44.911Z,50.22
2019-05-20T22:02:17.513Z,50.30
2019-05-20T22:04:48.722Z,50.34
2019-05-20T22:07:19.322Z,50.38
2019-05-20T22:09:52.027Z,50.41
2019-05-20T22:12:22.327Z,50.45
2019-05-20T22:14:54.674Z,50.50
2019-05-20T22:17:32.685Z,50.54
2019-05-20T22:20:04.591Z,50.62
2019-05-20T22:22:44.022Z,50.67
2019-05-20T22:25:14.152Z,50.72
2019-05-20T22:27:44.447Z,50.80
2019-05-20T22:30:15.126Z,50.86
2019-05-20T22:32:45.865Z,50.91
2019-05-20T22:35:16.591Z,50.96
2019-05-20T22:37:47.868Z,51.00
2019-05-20T22:40:19.035Z,51.08
2019-05-20T22:42:49.462Z,51.14
2019-05-20T22:45:20.263Z,51.19
2019-05-20T22:47:50.610Z,51.23
2019-05-20T22:50:28.909Z,51.30
2019-05-20T22:52:59.670Z,51.34
2019-05-20T22:55:30.259Z,51.43
2019-05-20T22:58:01.386Z,51.47
2019-05-20T23:00:33.325Z,51.56
2019-05-20T23:03:05.277Z,51.63
2019-05-20T23:05:35.552Z,51.68
2019-05-20T23:08:05.930Z,51.75
2019-05-20T23:10:36.195Z,51.81
2019-05-20T23:13:06.468Z,51.87
2019-05-20T23:15:37.297Z,51.94
2019-05-20T23:18:07.593Z,51.98
2019-05-20T23:20:37.946Z,52.05
2019-05-20T23:23:08.245Z,52.12
2019-05-20T23:25:43.824Z,52.17
2019-05-20T23:28:14.132Z,52.22
2019-05-20T23:30:44.808Z,52.30
2019-05-20T23:33:15.220Z,52.36
2019-05-20T23:35:45.894Z,52.41
2019-05-20T23:38:16.173Z,52.47
2019-05-20T23:40:46.483Z,52.54
2019-05-20T23:43:17.777Z,52.58
2019-05-20T23:45:48.381Z,52.62
2019-05-20T23:48:19.806Z,52.65
2019-05-20T23:50:50.446Z,52.71
2019-05-20T23:53:20.738Z,52.76
2019-05-20T23:55:52.699Z,52.82
2019-05-20T23:58:22.983Z,52.85
